Tropical Cyclones
[Index]
Main Index Home Page Stock Weather Photos Extreme Storms Discussion Storm News and Storm Chasing Reports Tropical Cyclones / Hurricanes / Typhoons Weather Data and Links Wild Fires / Bushfires Weather Observation Techniques Weather Picture Catalogue Tornado Pictures and Reports Stock Video Footage and DVDs for sale
Season 1998-1999 Tropical Cyclone ALISON Track Map
Season 1998-1999 Summaries: [BoM-AU] [JTWC-AU] [JTWC-SIO] [JTWC-SPAC] [JTWC-SH]
<<- Previous TC | BoM 1998-1999 Season | Next TC ->>

click for intensity scale information  Lat/long Grid: Show Hide

 Date Labels: Show Hide

Bureau of Meteorology Tropical Cyclone Data

Name: ALISON
Number: 817 / 199899_02

07 Nov 1998 01:00 UTC to 13 Nov 1998 10:00 UTC

    date/time    lat    long    hPa   cat  kts
1998-11-07 01   10.2    98.2   1002         23          
1998-11-07 04   10.3    98.4   1002         23          
1998-11-07 07   10.3    98.6   1000         27          
1998-11-07 10   10.4    98.8   1000         27          
1998-11-07 13   10.4    98.9    998         29          
1998-11-07 16   10.5    99.0    998         29          
1998-11-07 19   10.5    99.1    996         33          
1998-11-07 22   10.6    99.2    996         33          
1998-11-08 01   10.9    99.3    994    1    35          
1998-11-08 04   11.3    99.2    992    1    39          
1998-11-08 07   11.8    99.0    990    1    41          
1998-11-08 10   12.1    98.6    985    2    49          
1998-11-08 13   12.4    98.2    980    2    54          
1998-11-08 16   12.6    97.7    975    2    60          
1998-11-08 19   12.8    97.4    970    3    64          
1998-11-08 22   13.0    97.0    965    3    70          
1998-11-09 01   13.2    96.5    960    3    76          
1998-11-09 04   13.3    96.0    960    3    76          
1998-11-09 07   13.5    95.6    955    4    80          
1998-11-09 10   13.8    95.2    955    4    80          
1998-11-09 13   14.1    94.8    955    4    80          
1998-11-09 16   14.4    94.5    960    3    76          
1998-11-09 19   14.6    94.3    960    3    76          
1998-11-09 22   14.8    94.0    960    3    76          
1998-11-10 01   15.1    93.8    960    3    76          
1998-11-10 04   15.3    93.6    965    3    70          
1998-11-10 07   15.7    93.5    965    3    70          
1998-11-10 10   16.0    93.4    970    3    64          
1998-11-10 13   16.3    93.2    970    3    64          
1998-11-10 16   16.5    92.9    975    2    60          
1998-11-10 19   16.7    92.7    975    2    60          
1998-11-10 22   17.0    92.5    975    2    60          
1998-11-11 01   17.3    92.3    980    2    54          
1998-11-11 04   17.6    92.1    980    2    54          
1998-11-11 07   17.9    92.0    980    2    54          
1998-11-11 10   18.1    91.9    985    2    49          
1998-11-11 13   18.3    91.7    985    2    49          
1998-11-11 16   18.5    91.6    985    2    49          
1998-11-11 19   18.7    91.5    985    2    49          
1998-11-11 22   18.8    91.4    990    1    41          
1998-11-12 01   18.9    91.3    990    1    41          
1998-11-12 04   19.1    91.2    995    1    35          
1998-11-12 07   19.1    91.1    995    1    35          
1998-11-12 10   18.9    90.9    998         29          
1998-11-12 13   18.7    90.8   1000         27          
1998-11-12 19   18.2    90.7   1000         27          
1998-11-13 01   17.1    90.6   1005         19          
1998-11-13 07   16.5    89.8   1005         19          
1998-11-13 10   15.9    88.8   1005         19          
Winds are 10-min average.

Tropical cyclone tracks developed by Michael Bath using data from the Bureau of Meteorology and Google Maps.


[Australian Severe Weather index] [Copyright Notice] [Email Contacts] [Search This Site] [Privacy Policy]
Document: tropical_cyclone_alison.htm Updated: 30 May 2013